This is the latest recevied weather packets stored in our database for station/object K8RLH. If no packets are shown the sender has not sent any weather packets the latest 10 day(s).
| Time | Temp. | Humidity | Pressure | Rain* | Wind** | Luminosity | Snow |
|---|---|---|---|---|---|---|---|
| 1778099363 | 26.11° C | 61% | 1014.9 hPa | 0 mm | - | 151 W/m² | - |
| 1778099061 | 26.11° C | 60% | 1015 hPa | 0 mm | - | 89 W/m² | - |
| 1778098757 | 26.11° C | 62% | 1015 hPa | 0 mm | - | 85 W/m² | - |
| 1778098454 | 26.11° C | 60% | 1015.3 hPa | 0 mm | - | 92 W/m² | - |
| 1778098151 | 26.11° C | 61% | 1015 hPa | 0 mm | - | 148 W/m² | - |
| 1778097847 | 26.11° C | 60% | 1015.2 hPa | 0 mm | - | 169 W/m² | - |
| 1778097544 | 26.11° C | 59% | 1015.1 hPa | 0 mm | - | 226 W/m² | - |
| 1778097241 | 26.11° C | 59% | 1015.5 hPa | 0 mm | - | 175 W/m² | - |
| 1778096937 | 26.11° C | 60% | 1015.4 hPa | 0 mm | - | 195 W/m² | - |
| 1778096634 | 26.11° C | 59% | 1015.3 hPa | 0 mm | - | 241 W/m² | - |
| 1778096332 | 26.67° C | 58% | 1015.5 hPa | 0 mm | - | 138 W/m² | - |
| 1778096028 | 26.67° C | 58% | 1015.2 hPa | 0 mm | - | 146 W/m² | - |
| 1778095725 | 26.11° C | 60% | 1015.5 hPa | 0 mm | - | 140 W/m² | - |
| 1778095421 | 25.56° C | 62% | 1015.7 hPa | 0 mm | - | 153 W/m² | - |
| 1778095118 | 25.56° C | 61% | 1015.7 hPa | 0 mm | - | 187 W/m² | - |
| 1778094815 | 25.56° C | 61% | 1015.9 hPa | 0 mm | - | 198 W/m² | - |
| 1778094512 | 25.56° C | 61% | 1016 hPa | 0 mm | - | 194 W/m² | - |
| 1778094208 | 25.56° C | 61% | 1016 hPa | 0 mm | - | 230 W/m² | - |
| 1778093905 | 26.67° C | 58% | 1016 hPa | 0 mm | - | 222 W/m² | - |
| 1778093602 | 26.67° C | 59% | 1016.1 hPa | 0 mm | - | 175 W/m² | - |
| 1778093299 | 25.56° C | 63% | 1016.3 hPa | 0 mm | - | 238 W/m² | - |
| 1778092997 | 25° C | 64% | 1016.4 hPa | 0 mm | - | 239 W/m² | - |
| 1778092694 | 25° C | 63% | 1016.4 hPa | 0 mm | - | 182 W/m² | - |
| 1778092389 | 25° C | 62% | 1016.3 hPa | 0 mm | - | 127 W/m² | - |
| 1778092086 | 25° C | 61% | 1016 hPa | 0 mm | - | 96 W/m² | - |
* Rain latest hour (hover to see other rain measurements)
** Current wind speed in m/s (hover to see current wind gust speed)